Time;durP1;ratioP1;P1;durP2;ratioP2;P2;SDS_P1;SDS_P2;PMS_P1;PMS_P2;Temp;Humidity;BMP_temperature;BMP_pressure;BME280_temperature;BME280_humidity;BME280_pressure;Samples;Min_cycle;Max_cycle;Signal;HPM_P1;HPM_P2
2021/03/15 00:00:11;;;;;;;5.13;3.50;;;5.70;69.50;;;;;;5054917;28;20048;-70
2021/03/15 00:02:38;;;;;;;5.25;3.72;;;5.70;69.40;;;;;;5054071;28;20048;-71
2021/03/15 00:05:05;;;;;;;11.30;4.47;;;5.70;69.40;;;;;;5052508;28;20108;-73
2021/03/15 00:07:31;;;;;;;8.30;4.10;;;5.70;69.40;;;;;;5049061;28;20080;-73
2021/03/15 00:09:57;;;;;;;7.55;3.85;;;5.70;69.50;;;;;;5037963;28;20053;-72
2021/03/15 00:12:23;;;;;;;6.30;3.88;;;5.70;69.60;;;;;;5033585;28;20036;-70
2021/03/15 00:14:49;;;;;;;5.63;3.70;;;5.80;69.60;;;;;;5034053;28;20022;-70
2021/03/15 00:17:14;;;;;;;7.07;3.38;;;5.80;69.70;;;;;;5033860;28;20490;-71
2021/03/15 00:19:40;;;;;;;6.50;3.80;;;5.80;69.60;;;;;;5032068;28;20033;-72
2021/03/15 00:22:06;;;;;;;8.00;3.17;;;5.80;69.70;;;;;;5033110;28;20026;-70
2021/03/15 00:24:32;;;;;;;5.72;3.30;;;5.80;69.60;;;;;;5049272;28;20048;-71
2021/03/15 00:26:58;;;;;;;8.20;3.53;;;5.90;69.50;;;;;;5053158;28;20037;-70
2021/03/15 00:29:23;;;;;;;7.40;3.65;;;5.90;69.30;;;;;;5054576;28;20027;-72
2021/03/15 00:31:50;;;;;;;6.03;3.55;;;5.90;69.10;;;;;;5054272;28;20026;-72
2021/03/15 00:34:16;;;;;;;4.40;3.10;;;5.90;69.00;;;;;;5053475;28;20032;-71
2021/03/15 00:36:43;;;;;;;4.13;3.13;;;5.90;68.90;;;;;;5053914;28;20017;-73
2021/03/15 00:39:09;;;;;;;5.63;3.22;;;5.90;68.80;;;;;;5035141;28;20409;-72
2021/03/15 00:41:35;;;;;;;4.82;2.95;;;5.90;68.70;;;;;;5033565;28;20033;-71
2021/03/15 00:44:01;;;;;;;5.53;3.08;;;6.00;68.80;;;;;;5034070;28;20018;-73
2021/03/15 00:46:26;;;;;;;7.05;3.30;;;6.00;68.80;;;;;;5033095;28;20060;-71
2021/03/15 00:48:52;;;;;;;4.72;2.55;;;6.00;68.80;;;;;;5031824;28;20034;-72
2021/03/15 00:51:18;;;;;;;7.10;3.90;;;6.00;68.80;;;;;;5032965;28;20029;-73
2021/03/15 00:53:43;;;;;;;4.78;3.30;;;6.00;68.70;;;;;;5031152;28;20409;-71
2021/03/15 00:56:09;;;;;;;6.65;3.33;;;6.10;68.70;;;;;;5032323;28;20033;-72
2021/03/15 00:58:35;;;;;;;5.30;2.83;;;6.10;68.60;;;;;;5032394;28;20544;-71
2021/03/15 01:01:01;;;;;;;7.47;3.08;;;6.10;68.50;;;;;;5030799;28;20072;-70
2021/03/15 01:03:26;;;;;;;5.05;3.10;;;6.10;68.50;;;;;;5015266;28;20032;-72
2021/03/15 01:05:53;;;;;;;5.30;3.00;;;6.10;68.50;;;;;;5042541;28;20033;-70
2021/03/15 01:08:19;;;;;;;8.07;4.05;;;6.10;68.50;;;;;;5032118;28;20036;-71
2021/03/15 01:10:47;;;;;;;5.60;3.50;;;6.10;68.40;;;;;;5032000;28;20030;-72
2021/03/15 01:13:13;;;;;;;5.20;3.22;;;6.10;68.20;;;;;;5032140;28;20022;-72
2021/03/15 01:15:40;;;;;;;5.85;3.17;;;6.10;68.10;;;;;;5032020;28;20061;-71
2021/03/15 01:18:06;;;;;;;5.00;3.13;;;6.10;68.00;;;;;;5031935;28;20028;-72
2021/03/15 01:20:33;;;;;;;6.53;3.30;;;6.10;68.00;;;;;;5031832;28;20032;-73
2021/03/15 01:22:59;;;;;;;4.70;3.03;;;6.10;68.10;;;;;;5031927;28;20030;-72
2021/03/15 01:25:33;;;;;;;5.10;2.60;;;6.10;68.20;;;;;;5031783;28;20080;-72
2021/03/15 01:28:00;;;;;;;5.40;3.13;;;6.10;68.20;;;;;;5031791;28;20052;-70
2021/03/15 01:30:28;;;;;;;6.75;3.13;;;6.10;68.30;;;;;;5031880;28;20029;-72
2021/03/15 01:32:55;;;;;;;4.15;3.17;;;6.10;68.50;;;;;;5031591;28;20052;-72
2021/03/15 01:35:21;;;;;;;6.30;3.50;;;6.10;69.40;;;;;;5015379;28;20120;-71
2021/03/15 01:37:47;;;;;;;8.32;3.50;;;6.20;68.80;;;;;;5035267;28;20112;-70
2021/03/15 01:40:14;;;;;;;8.32;3.65;;;6.20;68.90;;;;;;5035196;28;20049;-72
2021/03/15 01:42:39;;;;;;;5.07;3.08;;;6.30;69.00;;;;;;5034035;28;20033;-72
2021/03/15 01:45:06;;;;;;;4.10;3.05;;;6.40;68.90;;;;;;5014095;28;20049;-71
2021/03/15 01:47:33;;;;;;;7.60;3.58;;;6.40;68.90;;;;;;5014191;28;20037;-72
2021/03/15 01:49:59;;;;;;;6.78;3.78;;;6.50;68.80;;;;;;5015432;28;20075;-71
2021/03/15 01:52:25;;;;;;;5.53;3.42;;;6.50;68.70;;;;;;5015218;28;20100;-71
2021/03/15 01:54:51;;;;;;;6.15;3.95;;;6.60;68.80;;;;;;5015179;28;20053;-71
2021/03/15 01:57:17;;;;;;;4.10;3.25;;;6.60;68.80;;;;;;5015243;28;20033;-72
2021/03/15 01:59:43;;;;;;;5.45;3.50;;;6.70;68.60;;;;;;5014966;28;20500;-72
2021/03/15 02:02:09;;;;;;;5.88;3.67;;;6.70;68.60;;;;;;5006519;28;20022;-72
2021/03/15 02:04:35;;;;;;;5.20;4.03;;;6.70;68.50;;;;;;5015180;28;20033;-71
2021/03/15 02:07:01;;;;;;;7.78;3.97;;;6.80;68.50;;;;;;5015082;28;20052;-72
2021/03/15 02:09:27;;;;;;;5.78;3.92;;;6.80;68.30;;;;;;5013914;28;20506;-70
2021/03/15 02:12:23;;;;;;;6.80;3.92;;;6.80;68.20;;;;;;5013709;28;20115;-71
2021/03/15 02:15:04;;;;;;;5.40;4.20;;;6.80;68.00;;;;;;5015031;28;20030;-72
2021/03/15 02:17:51;;;;;;;6.53;3.90;;;6.90;67.70;;;;;;5013774;28;20121;-71
2021/03/15 02:20:34;;;;;;;8.48;4.65;;;6.90;67.30;;;;;;5014754;28;20057;-72
2021/03/15 02:23:08;;;;;;;5.28;4.10;;;6.80;67.20;;;;;;5013717;28;20391;-71
2021/03/15 02:25:55;;;;;;;7.78;3.97;;;6.80;67.30;;;;;;5014608;28;20068;-72
2021/03/15 02:28:29;;;;;;;7.70;4.03;;;6.80;67.40;;;;;;5014646;28;20026;-72
2021/03/15 02:31:19;;;;;;;5.13;4.07;;;6.80;67.60;;;;;;5013387;28;20558;-72
2021/03/15 02:34:12;;;;;;;5.10;3.78;;;6.80;67.60;;;;;;5013236;28;20103;-70
2021/03/15 02:36:43;;;;;;;5.78;3.90;;;6.80;67.70;;;;;;5014734;28;20649;-72
2021/03/15 02:39:13;;;;;;;6.10;4.13;;;6.90;67.80;;;;;;5013095;28;20068;-71
2021/03/15 02:41:41;;;;;;;5.72;4.10;;;6.90;68.60;;;;;;5015318;28;20111;-70
2021/03/15 02:44:09;;;;;;;6.57;4.20;;;6.90;67.90;;;;;;5015035;28;20053;-70
2021/03/15 02:46:36;;;;;;;7.55;4.85;;;7.00;67.90;;;;;;5015171;28;20021;-70
2021/03/15 02:49:07;;;;;;;8.45;4.70;;;7.00;67.80;;;;;;5015222;28;20037;-71
2021/03/15 02:51:35;;;;;;;15.77;7.90;;;7.00;67.60;;;;;;5015132;28;20032;-70
2021/03/15 02:54:03;;;;;;;9.90;5.78;;;7.00;67.30;;;;;;5013865;28;20076;-71
2021/03/15 02:56:33;;;;;;;8.88;5.38;;;7.00;67.20;;;;;;5014960;28;20379;-71
2021/03/15 02:59:03;;;;;;;9.43;4.93;;;7.00;67.10;;;;;;5013748;28;20036;-70
2021/03/15 03:01:30;;;;;;;7.07;4.22;;;6.90;67.00;;;;;;5015157;28;20053;-71
2021/03/15 03:03:58;;;;;;;5.15;3.90;;;7.00;67.10;;;;;;5014792;28;20050;-72
2021/03/15 03:06:30;;;;;;;9.50;3.70;;;6.90;67.10;;;;;;5014863;28;20028;-71
2021/03/15 03:08:59;;;;;;;9.75;5.35;;;7.00;67.30;;;;;;5015080;28;20060;-71
2021/03/15 03:11:28;;;;;;;8.20;5.28;;;7.00;67.50;;;;;;4997161;28;20026;-70
2021/03/15 03:13:55;;;;;;;8.68;5.22;;;7.00;67.60;;;;;;5014603;28;20026;-71
2021/03/15 03:16:24;;;;;;;6.95;4.85;;;7.00;67.70;;;;;;5014760;28;20391;-72
2021/03/15 03:18:51;;;;;;;11.23;4.72;;;7.00;67.80;;;;;;5013417;28;20036;-72
2021/03/15 03:21:21;;;;;;;5.80;4.15;;;7.10;67.80;;;;;;4997205;28;20076;-70
2021/03/15 03:23:50;;;;;;;6.75;4.32;;;7.10;67.70;;;;;;5014640;28;20022;-71
2021/03/15 03:26:17;;;;;;;7.85;4.72;;;7.10;67.50;;;;;;5014629;28;20095;-71
2021/03/15 03:28:45;;;;;;;6.63;4.70;;;7.00;67.10;;;;;;5014342;28;20475;-70
2021/03/15 03:31:12;;;;;;;6.32;4.25;;;7.00;66.90;;;;;;5014601;28;20432;-71
2021/03/15 03:33:38;;;;;;;6.70;4.03;;;7.00;66.80;;;;;;5014255;28;20034;-71
2021/03/15 03:36:04;;;;;;;6.85;4.13;;;6.90;66.70;;;;;;5014295;28;20029;-70
2021/03/15 03:38:30;;;;;;;6.22;4.47;;;6.90;66.80;;;;;;5014348;28;20022;-72
2021/03/15 03:40:57;;;;;;;7.47;4.60;;;6.80;67.10;;;;;;5012802;28;20029;-70
2021/03/15 03:43:22;;;;;;;5.65;4.22;;;6.80;67.50;;;;;;5014242;28;20054;-72
2021/03/15 03:45:48;;;;;;;5.78;3.92;;;6.80;67.80;;;;;;5014172;28;20149;-70
2021/03/15 03:48:14;;;;;;;6.93;4.72;;;6.80;68.00;;;;;;5012775;28;20033;-71
2021/03/15 03:50:40;;;;;;;7.80;4.80;;;6.90;68.00;;;;;;5014159;28;20034;-70
2021/03/15 03:53:15;;;;;;;7.20;4.57;;;6.90;67.80;;;;;;5013914;28;20026;-71
2021/03/15 03:55:46;;;;;;;9.18;5.55;;;6.90;67.70;;;;;;5014074;28;20026;-71
2021/03/15 03:58:14;;;;;;;7.50;5.25;;;6.90;67.70;;;;;;5016499;28;20525;-71
2021/03/15 04:00:41;;;;;;;5.30;4.35;;;6.90;67.80;;;;;;5015575;28;20478;-71
2021/03/15 04:03:14;;;;;;;4.80;3.92;;;6.90;67.90;;;;;;5033615;28;20080;-71
2021/03/15 04:05:44;;;;;;;8.35;5.45;;;6.90;68.20;;;;;;5033525;28;20033;-71
2021/03/15 04:08:15;;;;;;;6.38;4.60;;;6.90;68.10;;;;;;5033527;28;20120;-71
2021/03/15 04:10:42;;;;;;;7.68;4.90;;;7.00;68.10;;;;;;5033557;28;20108;-72
2021/03/15 04:13:10;;;;;;;7.15;5.35;;;6.90;68.00;;;;;;5015609;28;20148;-71
2021/03/15 04:15:43;;;;;;;6.97;4.88;;;7.00;68.00;;;;;;5033500;28;20022;-72
2021/03/15 04:18:13;;;;;;;6.88;4.75;;;6.90;67.70;;;;;;5033411;28;20022;-70
2021/03/15 04:20:42;;;;;;;7.22;5.68;;;7.00;67.60;;;;;;5033369;28;20356;-71
2021/03/15 04:23:12;;;;;;;9.13;5.95;;;6.90;67.40;;;;;;5033251;28;20123;-71
2021/03/15 04:25:39;;;;;;;6.88;4.93;;;6.90;67.40;;;;;;5031953;28;20033;-70
2021/03/15 04:28:07;;;;;;;8.40;6.55;;;6.90;67.70;;;;;;5033171;28;20032;-70
2021/03/15 04:30:35;;;;;;;9.68;6.10;;;6.90;68.80;;;;;;5033102;28;20021;-71
2021/03/15 04:33:02;;;;;;;11.82;7.10;;;6.90;68.20;;;;;;5032867;28;20026;-71
2021/03/15 04:35:30;;;;;;;8.32;6.47;;;6.90;68.20;;;;;;5033029;28;20025;-70
2021/03/15 04:38:02;;;;;;;9.10;6.30;;;6.90;68.30;;;;;;5032976;28;20075;-71
2021/03/15 04:40:30;;;;;;;8.25;6.57;;;6.90;68.40;;;;;;5033001;28;20025;-70
2021/03/15 04:43:00;;;;;;;8.05;6.47;;;7.00;68.50;;;;;;5032982;28;20506;-71
2021/03/15 04:45:32;;;;;;;9.57;6.85;;;7.00;68.50;;;;;;5015285;28;20056;-71
2021/03/15 04:48:00;;;;;;;10.70;6.55;;;7.10;68.50;;;;;;5033004;28;20036;-71
2021/03/15 04:50:27;;;;;;;7.97;6.00;;;7.10;68.40;;;;;;5032856;28;20026;-70
2021/03/15 04:52:54;;;;;;;7.80;6.25;;;7.10;68.50;;;;;;5032726;28;20025;-71
2021/03/15 04:55:21;;;;;;;6.43;5.20;;;7.20;68.30;;;;;;5015143;28;20021;-70
2021/03/15 04:57:48;;;;;;;8.43;6.70;;;7.20;68.30;;;;;;5032641;28;20017;-72
2021/03/15 05:00:15;;;;;;;11.02;6.45;;;7.20;68.30;;;;;;5032685;28;20049;-71
2021/03/15 05:02:46;;;;;;;10.85;7.03;;;7.30;68.40;;;;;;5031885;28;20064;-72
2021/03/15 05:05:15;;;;;;;8.75;6.50;;;7.30;68.30;;;;;;5032798;28;20534;-69
2021/03/15 05:07:46;;;;;;;8.43;6.82;;;7.30;68.20;;;;;;5032765;28;20037;-69
2021/03/15 05:10:14;;;;;;;8.38;6.15;;;7.30;68.20;;;;;;5034085;28;20033;-70
2021/03/15 05:12:41;;;;;;;12.60;6.70;;;7.40;68.30;;;;;;5036730;28;20021;-71
2021/03/15 05:15:08;;;;;;;10.30;7.38;;;7.40;68.30;;;;;;5018898;28;20025;-71
2021/03/15 05:17:36;;;;;;;9.85;6.88;;;7.40;68.30;;;;;;5036778;28;20137;-70
2021/03/15 05:20:06;;;;;;;8.05;6.75;;;7.50;68.20;;;;;;5036581;28;20081;-71
2021/03/15 05:22:33;;;;;;;8.27;6.55;;;7.50;68.00;;;;;;5018681;28;20017;-71
2021/03/15 05:25:07;;;;;;;10.82;7.85;;;7.50;68.00;;;;;;5036462;28;20013;-71
2021/03/15 05:27:34;;;;;;;9.83;7.70;;;7.50;67.80;;;;;;5035992;28;20411;-70
2021/03/15 05:30:07;;;;;;;8.73;7.05;;;7.50;67.70;;;;;;5036421;28;20026;-70
2021/03/15 05:32:36;;;;;;;9.52;7.57;;;7.50;67.60;;;;;;5036260;28;20045;-70
2021/03/15 05:35:04;;;;;;;8.25;6.68;;;7.50;67.30;;;;;;5036309;28;20067;-70
2021/03/15 05:37:30;;;;;;;10.07;7.28;;;7.50;67.30;;;;;;5036229;28;20052;-71
2021/03/15 05:39:56;;;;;;;9.40;6.85;;;7.50;67.40;;;;;;5036192;28;20029;-70
2021/03/15 05:42:22;;;;;;;10.52;7.35;;;7.50;67.50;;;;;;5035037;28;20056;-70
2021/03/15 05:45:11;;;;;;;8.93;6.90;;;7.50;67.60;;;;;;5034790;28;20021;-70
2021/03/15 05:47:56;;;;;;;9.77;7.53;;;7.50;67.60;;;;;;5036293;28;20061;-69
2021/03/15 05:50:43;;;;;;;9.68;7.45;;;7.60;67.60;;;;;;5034715;28;20027;-70
2021/03/15 05:53:11;;;;;;;10.23;7.10;;;7.60;67.70;;;;;;5035975;28;20391;-71
2021/03/15 05:55:43;;;;;;;10.98;6.97;;;7.60;67.80;;;;;;5035850;28;20014;-70
2021/03/15 05:58:33;;;;;;;9.32;6.95;;;7.60;67.90;;;;;;5035883;28;20030;-71
2021/03/15 06:01:22;;;;;;;11.00;7.78;;;7.70;68.10;;;;;;5031325;28;20053;-69
2021/03/15 06:04:24;;;;;;;10.68;8.32;;;7.70;68.10;;;;;;5031256;28;20032;-71
2021/03/15 06:06:53;;;;;;;10.07;7.57;;;7.80;68.00;;;;;;5015907;28;20030;-71
2021/03/15 06:09:23;;;;;;;10.20;7.68;;;7.80;67.70;;;;;;5015865;28;20036;-70
2021/03/15 06:12:01;;;;;;;11.25;7.35;;;7.80;67.50;;;;;;5015700;28;20028;-71
2021/03/15 06:14:29;;;;;;;13.75;8.43;;;7.80;67.50;;;;;;5015784;28;20383;-70
2021/03/15 06:16:55;;;;;;;8.88;7.10;;;7.80;67.60;;;;;;5015779;28;20022;-70
2021/03/15 06:19:24;;;;;;;9.52;7.32;;;7.80;67.80;;;;;;5030756;28;20026;-71
2021/03/15 06:21:55;;;;;;;9.30;6.45;;;7.80;67.90;;;;;;5015189;28;20018;-70
2021/03/15 06:24:21;;;;;;;10.20;7.30;;;7.90;68.00;;;;;;5015671;28;20383;-71
2021/03/15 06:26:48;;;;;;;13.60;8.35;;;7.80;68.10;;;;;;5030818;28;20108;-70
2021/03/15 06:29:14;;;;;;;13.70;7.93;;;7.90;68.10;;;;;;5015472;28;20547;-70
2021/03/15 06:31:50;;;;;;;9.25;7.57;;;7.80;67.80;;;;;;5015337;28;20105;-70
2021/03/15 06:34:17;;;;;;;9.57;7.47;;;7.90;67.70;;;;;;5030480;28;20049;-71
2021/03/15 06:36:43;;;;;;;10.38;8.10;;;7.90;67.80;;;;;;5015418;28;20022;-71
2021/03/15 06:39:14;;;;;;;10.15;7.85;;;7.80;67.40;;;;;;5014010;28;20022;-71
2021/03/15 06:41:45;;;;;;;9.50;7.20;;;7.80;67.20;;;;;;5029080;28;20029;-69
2021/03/15 06:44:11;;;;;;;7.55;6.35;;;7.80;67.40;;;;;;5034338;28;20025;-69
2021/03/15 06:46:39;;;;;;;9.70;7.00;;;7.80;67.60;;;;;;5034283;28;20494;-72
2021/03/15 06:49:05;;;;;;;9.32;7.30;;;7.90;68.10;;;;;;5033636;28;20049;-71
2021/03/15 06:51:31;;;;;;;9.25;7.45;;;7.90;68.10;;;;;;5034936;28;20049;-71
2021/03/15 06:53:57;;;;;;;9.88;7.95;;;8.00;68.10;;;;;;5031930;28;20029;-69
2021/03/15 06:56:24;;;;;;;8.90;7.38;;;8.00;67.80;;;;;;5014939;28;20022;-71
2021/03/15 06:58:55;;;;;;;11.45;8.63;;;8.10;67.80;;;;;;5014907;28;20072;-70
2021/03/15 07:01:25;;;;;;;9.70;7.65;;;8.10;67.90;;;;;;5030709;28;20046;-71
2021/03/15 07:04:09;;;;;;;11.00;8.00;;;8.10;68.20;;;;;;5033260;28;20140;-71
2021/03/15 07:06:36;;;;;;;11.18;7.80;;;8.20;68.50;;;;;;5034403;28;20021;-70
2021/03/15 07:09:12;;;;;;;11.13;9.05;;;8.30;68.90;;;;;;5034183;28;20103;-70
2021/03/15 07:11:38;;;;;;;12.00;8.02;;;8.40;68.60;;;;;;5034486;28;20029;-72
2021/03/15 07:14:04;;;;;;;10.77;7.78;;;8.50;68.50;;;;;;5034384;28;20105;-70
2021/03/15 07:16:34;;;;;;;10.45;7.72;;;8.60;68.10;;;;;;5034330;28;20104;-70
2021/03/15 07:19:03;;;;;;;10.90;7.57;;;8.70;67.70;;;;;;5034522;28;20022;-71
2021/03/15 07:21:34;;;;;;;10.77;7.60;;;8.70;67.50;;;;;;5034304;28;20022;-70
2021/03/15 07:24:00;;;;;;;10.75;7.40;;;8.80;67.70;;;;;;5034209;28;20036;-71
2021/03/15 07:26:27;;;;;;;9.55;7.80;;;8.90;67.90;;;;;;5034359;28;20071;-71
2021/03/15 07:28:55;;;;;;;8.48;6.25;;;8.90;67.60;;;;;;5034158;28;20025;-70
2021/03/15 07:31:21;;;;;;;8.60;6.40;;;9.00;67.20;;;;;;5034159;28;20475;-71
2021/03/15 07:33:54;;;;;;;11.80;7.45;;;9.00;66.90;;;;;;5033210;28;20104;-70
2021/03/15 07:36:20;;;;;;;9.73;7.70;;;8.90;66.60;;;;;;5034077;28;20049;-70
2021/03/15 07:38:47;;;;;;;19.17;12.05;;;8.90;66.30;;;;;;5033968;28;20068;-70
2021/03/15 07:41:14;;;;;;;17.42;11.27;;;8.90;66.40;;;;;;5016007;28;20048;-70
2021/03/15 07:43:40;;;;;;;13.57;9.45;;;8.80;66.30;;;;;;5033775;28;20025;-71
2021/03/15 07:46:22;;;;;;;25.73;12.32;;;8.80;66.50;;;;;;5016129;28;20030;-70
2021/03/15 07:48:49;;;;;;;11.82;8.15;;;8.70;66.30;;;;;;5032420;28;20112;-71
2021/03/15 07:51:30;;;;;;;15.88;10.48;;;8.70;66.20;;;;;;5033834;28;20060;-71
2021/03/15 07:54:26;;;;;;;11.57;8.43;;;8.60;66.30;;;;;;5033640;28;20444;-70
2021/03/15 07:57:13;;;;;;;12.40;7.53;;;8.60;66.50;;;;;;5014367;28;20067;-71
2021/03/15 07:59:43;;;;;;;13.40;8.13;;;8.60;66.60;;;;;;5033412;28;20026;-69
2021/03/15 08:02:21;;;;;;;10.15;7.70;;;8.50;66.50;;;;;;5033609;28;20017;-70
2021/03/15 08:04:48;;;;;;;9.75;6.95;;;8.60;66.90;;;;;;5033550;28;20139;-69
2021/03/15 08:07:16;;;;;;;13.07;8.13;;;8.70;67.60;;;;;;5015810;28;20021;-70
2021/03/15 08:09:43;;;;;;;9.90;7.20;;;8.80;67.40;;;;;;5033402;28;20052;-70
2021/03/15 08:12:10;;;;;;;9.48;7.00;;;8.90;67.20;;;;;;5033324;28;20045;-70
2021/03/15 08:14:39;;;;;;;10.82;6.97;;;8.90;66.90;;;;;;5033372;28;20471;-70
2021/03/15 08:17:08;;;;;;;9.82;6.88;;;9.00;66.80;;;;;;5033390;28;20394;-69
2021/03/15 08:19:36;;;;;;;11.38;7.18;;;9.10;67.00;;;;;;5033236;28;20056;-70
2021/03/15 08:22:04;;;;;;;9.57;6.75;;;9.20;66.90;;;;;;5033253;28;20433;-69
2021/03/15 08:24:35;;;;;;;10.73;7.50;;;9.30;66.70;;;;;;5032213;28;20021;-70
2021/03/15 08:27:02;;;;;;;8.10;5.97;;;9.40;66.00;;;;;;5033214;28;20524;-69
2021/03/15 08:29:31;;;;;;;8.73;6.03;;;9.40;65.20;;;;;;5033018;28;20048;-70
2021/03/15 08:31:58;;;;;;;13.23;5.80;;;9.40;64.60;;;;;;5033044;28;20052;-69
2021/03/15 08:34:25;;;;;;;12.55;6.00;;;9.40;63.60;;;;;;5032961;28;20022;-69
2021/03/15 08:36:51;;;;;;;10.68;5.25;;;9.40;63.20;;;;;;5033110;28;20494;-69
2021/03/15 08:39:32;;;;;;;9.07;4.90;;;9.50;63.00;;;;;;5032881;28;20022;-69
2021/03/15 08:42:20;;;;;;;8.38;5.25;;;9.50;62.40;;;;;;5032955;28;20021;-69
2021/03/15 08:44:48;;;;;;;6.70;4.95;;;9.50;63.10;;;;;;5032737;28;20029;-69
2021/03/15 08:47:48;;;;;;;9.27;5.50;;;9.60;63.90;;;;;;5032945;28;20529;-69
2021/03/15 08:50:32;;;;;;;9.90;4.68;;;9.70;63.90;;;;;;5032750;28;20030;-69
2021/03/15 08:52:58;;;;;;;6.13;4.47;;;9.90;61.60;;;;;;5031416;28;20033;-69
2021/03/15 08:55:42;;;;;;;7.35;4.65;;;9.90;61.60;;;;;;5032674;28;20087;-69
2021/03/15 08:58:32;;;;;;;8.13;4.53;;;10.00;60.50;;;;;;5032782;28;20021;-69
2021/03/15 09:00:58;;;;;;;8.00;5.13;;;10.10;61.30;;;;;;5032518;28;20045;-69
2021/03/15 09:03:52;;;;;;;9.23;4.53;;;10.20;60.00;;;;;;5032712;28;20471;-69
2021/03/15 09:06:33;;;;;;;8.93;4.22;;;10.20;59.90;;;;;;5031381;28;20073;-69
2021/03/15 09:09:24;;;;;;;11.02;4.10;;;10.30;60.70;;;;;;5031553;28;20468;-69
2021/03/15 09:11:55;;;;;;;10.40;4.18;;;10.30;59.40;;;;;;5014922;28;20029;-69
2021/03/15 09:14:25;;;;;;;10.27;4.93;;;10.40;59.40;;;;;;5014803;28;20025;-69
2021/03/15 09:16:53;;;;;;;6.97;4.03;;;10.30;58.10;;;;;;5032373;28;20471;-69
2021/03/15 09:19:23;;;;;;;11.25;4.43;;;10.30;58.40;;;;;;5032273;28;20048;-68
2021/03/15 09:21:56;;;;;;;7.05;3.92;;;10.20;58.40;;;;;;5032249;28;20050;-69
2021/03/15 09:24:37;;;;;;;8.10;4.32;;;10.20;58.70;;;;;;5032371;28;20109;-68
2021/03/15 09:27:04;;;;;;;6.30;3.80;;;10.10;58.50;;;;;;5031628;28;20065;-69
2021/03/15 09:29:30;;;;;;;5.10;3.88;;;10.10;58.40;;;;;;5015668;28;20128;-68
2021/03/15 09:32:06;;;;;;;10.88;4.63;;;10.10;58.00;;;;;;5032188;28;20028;-69
2021/03/15 09:34:32;;;;;;;11.18;4.50;;;10.20;58.40;;;;;;5012552;28;20060;-69
2021/03/15 09:36:59;;;;;;;6.20;4.15;;;10.10;58.40;;;;;;5012732;28;20408;-68
2021/03/15 09:39:28;;;;;;;6.60;3.80;;;10.10;58.80;;;;;;5019002;28;20463;-68
2021/03/15 09:41:54;;;;;;;8.02;4.07;;;10.10;58.90;;;;;;5012588;28;20154;-68
2021/03/15 09:44:32;;;;;;;13.85;4.45;;;10.20;58.90;;;;;;5030897;28;20483;-68
2021/03/15 09:46:59;;;;;;;7.22;3.97;;;10.10;58.10;;;;;;5032209;28;20033;-68
2021/03/15 09:49:43;;;;;;;10.80;4.32;;;10.10;58.10;;;;;;5031500;28;20040;-68
2021/03/15 09:52:17;;;;;;;5.47;3.87;;;10.20;58.20;;;;;;5032213;28;20072;-68
2021/03/15 09:54:46;;;;;;;12.02;4.57;;;10.30;58.30;;;;;;5032199;28;20761;-68
2021/03/15 09:57:14;;;;;;;8.90;3.72;;;10.40;58.70;;;;;;5034454;28;20030;-69
2021/03/15 09:59:40;;;;;;;10.32;4.38;;;10.50;58.50;;;;;;5035337;28;20021;-68
2021/03/15 10:02:07;;;;;;;5.97;3.85;;;10.70;58.40;;;;;;5035515;28;20025;-68
2021/03/15 10:04:37;;;;;;;7.70;3.50;;;10.70;57.90;;;;;;5034710;28;20017;-68
2021/03/15 10:07:06;;;;;;;5.43;3.67;;;10.80;58.30;;;;;;5034213;28;20429;-68
2021/03/15 10:09:33;;;;;;;5.75;3.75;;;10.90;58.80;;;;;;5035186;28;20100;-68
2021/03/15 10:12:00;;;;;;;5.90;3.10;;;10.90;58.20;;;;;;5031828;28;20147;-68
2021/03/15 10:14:26;;;;;;;6.50;3.70;;;10.90;58.60;;;;;;5032616;28;20104;-68
2021/03/15 10:16:57;;;;;;;6.22;3.78;;;11.00;58.70;;;;;;5035358;28;20083;-68
2021/03/15 10:19:27;;;;;;;6.80;3.28;;;11.00;59.50;;;;;;5035180;28;20026;-68
2021/03/15 10:21:53;;;;;;;7.43;3.70;;;11.00;60.30;;;;;;5034602;28;20330;-68
2021/03/15 10:24:40;;;;;;;13.73;4.43;;;11.10;60.60;;;;;;5035135;28;20029;-68
2021/03/15 10:27:17;;;;;;;4.53;2.90;;;11.20;60.80;;;;;;5034757;28;20032;-68
2021/03/15 10:30:00;;;;;;;6.35;3.17;;;11.30;61.40;;;;;;5022816;28;20033;-68
2021/03/15 10:32:29;;;;;;;6.28;3.80;;;11.50;61.50;;;;;;5034555;28;20497;-68
2021/03/15 10:35:07;;;;;;;4.57;3.38;;;11.60;58.50;;;;;;5033693;28;20120;-68
2021/03/15 10:37:36;;;;;;;6.70;3.72;;;11.70;57.90;;;;;;5034921;28;20045;-68
2021/03/15 10:40:03;;;;;;;12.57;3.95;;;11.80;57.20;;;;;;5034897;28;20089;-68
2021/03/15 10:42:30;;;;;;;6.32;4.05;;;11.80;57.90;;;;;;5034572;28;20042;-68
2021/03/15 10:44:56;;;;;;;6.88;3.85;;;11.80;57.80;;;;;;5034693;28;20353;-68
2021/03/15 10:47:33;;;;;;;5.47;3.22;;;11.80;57.40;;;;;;5034688;28;20029;-68
2021/03/15 10:50:00;;;;;;;4.25;3.20;;;11.70;57.30;;;;;;5017714;28;20053;-68
2021/03/15 10:52:34;;;;;;;3.92;2.80;;;11.70;58.80;;;;;;5034178;28;20025;-68
2021/03/15 10:55:18;;;;;;;5.05;3.15;;;11.70;60.20;;;;;;5034452;28;20025;-68
2021/03/15 10:58:19;;;;;;;4.80;3.83;;;11.80;60.10;;;;;;5034582;28;20040;-69
2021/03/15 11:00:59;;;;;;;5.32;3.08;;;11.90;59.30;;;;;;5033780;28;20041;-68
2021/03/15 11:03:27;;;;;;;4.88;3.60;;;11.90;59.50;;;;;;5034896;28;20025;-68
2021/03/15 11:06:06;;;;;;;3.70;2.90;;;11.80;58.80;;;;;;5034124;28;20025;-68
2021/03/15 11:08:33;;;;;;;4.45;3.63;;;11.80;59.00;;;;;;5033028;28;20056;-69
2021/03/15 11:11:23;;;;;;;4.55;3.30;;;11.70;59.40;;;;;;5034094;28;20040;-69
2021/03/15 11:13:51;;;;;;;6.00;4.10;;;11.70;60.70;;;;;;5016276;28;20021;-68
2021/03/15 11:16:17;;;;;;;5.35;3.67;;;11.80;60.90;;;;;;5033848;28;20048;-68
2021/03/15 11:18:43;;;;;;;8.32;3.47;;;11.90;59.80;;;;;;5034018;28;20025;-68
2021/03/15 11:21:10;;;;;;;8.23;3.55;;;11.90;59.10;;;;;;5016300;28;20017;-68
2021/03/15 11:23:39;;;;;;;8.48;3.20;;;11.80;57.70;;;;;;5033890;28;20053;-68
2021/03/15 11:26:11;;;;;;;7.55;3.30;;;11.80;58.20;;;;;;5016403;28;20033;-68
2021/03/15 11:28:46;;;;;;;6.68;3.40;;;11.70;57.90;;;;;;5033776;28;20033;-68
2021/03/15 11:31:17;;;;;;;5.80;3.03;;;11.70;57.60;;;;;;5033760;28;20505;-68
2021/03/15 11:33:57;;;;;;;6.63;3.20;;;11.60;56.60;;;;;;5015806;28;20037;-68
2021/03/15 11:36:25;;;;;;;6.70;3.15;;;11.50;55.70;;;;;;5032874;28;20044;-68
2021/03/15 11:38:52;;;;;;;5.63;3.30;;;11.40;55.50;;;;;;5033380;28;20021;-68
2021/03/15 11:41:27;;;;;;;4.97;3.03;;;11.40;55.40;;;;;;5023122;28;20021;-68
2021/03/15 11:43:53;;;;;;;6.72;2.65;;;11.40;56.60;;;;;;5031887;28;20040;-68
2021/03/15 11:46:19;;;;;;;8.45;3.10;;;11.40;56.70;;;;;;5032377;28;20135;-68
2021/03/15 11:48:46;;;;;;;4.68;2.35;;;11.40;56.30;;;;;;5033414;28;20030;-68
2021/03/15 11:51:13;;;;;;;7.35;2.67;;;11.40;56.20;;;;;;5033551;28;20030;-68
2021/03/15 11:53:40;;;;;;;3.03;2.10;;;11.50;56.60;;;;;;5032875;28;20387;-68
2021/03/15 11:56:06;;;;;;;6.28;2.40;;;11.50;56.00;;;;;;5040986;28;20032;-68
2021/03/15 11:58:33;;;;;;;9.05;2.10;;;11.50;54.20;;;;;;5029595;28;20029;-68
2021/03/15 12:00:58;;;;;;;4.00;1.95;;;11.50;53.50;;;;;;5032676;28;20047;-69
2021/03/15 12:03:24;;;;;;;8.02;2.67;;;11.50;54.20;;;;;;5032430;28;20041;-68
2021/03/15 12:05:50;;;;;;;6.53;2.60;;;11.60;55.00;;;;;;5034375;28;20112;-68
2021/03/15 12:08:16;;;;;;;8.38;2.60;;;11.70;55.20;;;;;;5033452;28;20057;-68
2021/03/15 12:10:43;;;;;;;7.13;2.38;;;11.80;54.70;;;;;;5032950;28;20029;-68
2021/03/15 12:13:09;;;;;;;4.20;2.35;;;11.90;53.30;;;;;;5032627;28;20395;-68
2021/03/15 12:15:36;;;;;;;8.98;2.20;;;12.00;53.50;;;;;;5021488;28;20036;-68
2021/03/15 12:18:02;;;;;;;3.55;2.17;;;12.10;53.70;;;;;;5030322;28;20028;-69
2021/03/15 12:20:28;;;;;;;4.82;2.30;;;12.30;53.70;;;;;;5032814;28;20055;-68
2021/03/15 12:22:54;;;;;;;5.85;2.17;;;12.30;52.70;;;;;;5028821;28;20423;-68
2021/03/15 12:25:20;;;;;;;4.05;2.30;;;12.40;53.30;;;;;;5032382;28;20105;-68
2021/03/15 12:27:46;;;;;;;5.38;2.20;;;12.50;54.10;;;;;;5032002;28;20026;-68
2021/03/15 12:30:13;;;;;;;6.93;2.30;;;12.60;51.80;;;;;;5014834;28;20099;-68
2021/03/15 12:32:38;;;;;;;4.40;2.20;;;12.70;52.40;;;;;;5032510;28;20055;-68
2021/03/15 12:35:05;;;;;;;4.60;2.05;;;12.80;51.10;;;;;;5032733;28;20017;-68
2021/03/15 12:37:31;;;;;;;5.32;2.25;;;12.90;50.20;;;;;;5030898;28;20119;-68
2021/03/15 12:39:56;;;;;;;10.60;2.70;;;13.00;51.50;;;;;;5023747;28;20487;-68
2021/03/15 12:42:22;;;;;;;11.10;2.70;;;13.10;51.00;;;;;;5031210;28;20020;-68
2021/03/15 12:44:48;;;;;;;5.07;2.20;;;13.10;50.80;;;;;;5012871;28;20036;-68
2021/03/15 12:47:14;;;;;;;6.10;2.10;;;13.20;50.30;;;;;;5032483;28;20379;-68
2021/03/15 12:49:40;;;;;;;4.75;2.20;;;13.20;51.40;;;;;;5032323;28;20103;-68
2021/03/15 12:52:07;;;;;;;9.45;2.70;;;13.10;50.60;;;;;;5029067;28;20025;-68
2021/03/15 12:54:34;;;;;;;6.57;3.00;;;13.00;53.50;;;;;;5032869;28;20025;-69
2021/03/15 12:57:00;;;;;;;6.22;2.20;;;12.80;55.80;;;;;;5032203;28;20020;-69
2021/03/15 12:59:26;;;;;;;4.60;2.72;;;12.50;56.70;;;;;;5014534;28;20021;-69
2021/03/15 13:01:52;;;;;;;5.95;2.40;;;12.40;57.40;;;;;;5014975;28;20535;-70
2021/03/15 13:04:17;;;;;;;6.07;2.58;;;12.30;58.10;;;;;;5032529;28;20217;-69